terça-feira, 19 de junho de 2012

Nevoeiro diverge 4 Aeronaves.

Devido ao nevoeiro  baixo na ilha da madeira 4 aviões   divergiram para o aeroporto de porto santo. A metar na parte da manha estava :  


LPMA 190630Z 01003KT 3000 -RA BKN012 20/19 Q1017 RS36004KT 0502004KT 2303003KT.







Matriculas: D-ABFG
                 CS-TTS
                D-AHFI
                 D-ATUG

3 comentários:

  1. O primeiro Tui vinha a deixar um rasto engraçado

    ResponderEliminar
  2. Tiveste foi azar com os Tui. Só tiveste direito a "ovos"!

    ResponderEliminar
  3. pois infelizmente.. lol , na semana passada veio o haribu ai..

    ResponderEliminar